This is the latest recevied weather packets stored in our database for station/object K0QED. If no packets are shown the sender has not sent any weather packets the latest 1 day(s).
| Time | Temp. | Humidity | Pressure | Rain* | Wind** | Luminosity | Snow |
|---|---|---|---|---|---|---|---|
| 1836274803 | 12.78° C | 51% | 1026.5 hPa | 0 mm | 0.45 m/s, 318° | 0 W/m² | - |
| 1836274501 | 12.78° C | 52% | 1026.4 hPa | 0 mm | 0.45 m/s, 318° | 0 W/m² | - |
| 1836274354 | 12.78° C | 53% | 1026.4 hPa | 0 mm | 0.45 m/s, 323° | 0 W/m² | - |
| 1836274198 | 13.33° C | 49% | 1026.5 hPa | 0 mm | 0 m/s | 0 W/m² | - |
| 1836273892 | 13.33° C | 51% | 1026.2 hPa | 0 mm | 0 m/s | 0 W/m² | - |
| 1778022670 | 0° C | 99% | 1013 hPa | 1.78 mm | 0 m/s | 25 W/m² | - |
| 1778022368 | 0° C | 99% | 1012.7 hPa | 1.78 mm | 0 m/s | 29 W/m² | - |
| 1778022064 | 0° C | 99% | 1013.1 hPa | 0 mm | 0 m/s | 24 W/m² | - |
| 1778021760 | 0° C | 99% | 1012.6 hPa | 0 mm | 0.89 m/s, 156° | 34 W/m² | - |
| 1778021457 | 0° C | 99% | 1012.5 hPa | 0 mm | 0 m/s | 34 W/m² | - |
| 1778021154 | 0.56° C | 99% | 1012.7 hPa | 0 mm | 0.45 m/s, 171° | 32 W/m² | - |
| 1778020851 | 0° C | 99% | 1012.7 hPa | 0 mm | 0.89 m/s, 168° | 40 W/m² | - |
| 1778020548 | 0.56° C | 99% | 1012.5 hPa | 0 mm | 0 m/s | 33 W/m² | - |
| 1778020244 | 0° C | 99% | 1012.4 hPa | 0 mm | 0.45 m/s, 177° | 34 W/m² | - |
| 1778019940 | 0° C | 99% | 1012.2 hPa | 1.27 mm | 0.89 m/s, 145° | 39 W/m² | - |
| 1778019637 | 0° C | 99% | 1012.4 hPa | 1.27 mm | 0.45 m/s, 132° | 35 W/m² | - |
| 1778019334 | 0° C | 99% | 1012.5 hPa | 0 mm | 0 m/s | 39 W/m² | - |
| 1778019030 | 0° C | 99% | 1012.4 hPa | 0 mm | 0 m/s | 42 W/m² | - |
| 1778018728 | 0.56° C | 99% | 1012.6 hPa | 0 mm | 0 m/s | 39 W/m² | - |
| 1778018426 | 0.56° C | 99% | 1012.5 hPa | 0 mm | 0.45 m/s, 195° | 45 W/m² | - |
| 1778018126 | 0° C | 99% | 1012.7 hPa | 0 mm | 0 m/s | 44 W/m² | - |
| 1778017821 | 0.56° C | 99% | 1012.9 hPa | 0 mm | 0 m/s | 38 W/m² | - |
| 1778017519 | 0° C | 99% | 1013 hPa | 0 mm | 0.89 m/s, 248° | 37 W/m² | - |
| 1778017215 | 0.56° C | 99% | 1013.1 hPa | 0 mm | 0 m/s | 36 W/m² | - |
| 1778016913 | 0.56° C | 99% | 1012.9 hPa | 0 mm | 0 m/s | 48 W/m² | - |
* Rain latest hour (hover to see other rain measurements)
** Current wind speed in m/s (hover to see current wind gust speed)